createdAt,value
2023-03-26T00:02:12.115Z,5.16
2023-03-26T00:04:42.723Z,5.13
2023-03-26T00:07:12.791Z,5.08
2023-03-26T00:09:41.747Z,5.07
2023-03-26T00:12:10.815Z,5.07
2023-03-26T00:14:41.089Z,5.08
2023-03-26T00:17:11.675Z,5.07
2023-03-26T00:19:40.512Z,5.09
2023-03-26T00:22:11.302Z,5.09
2023-03-26T00:24:40.441Z,5.10
2023-03-26T00:27:09.313Z,5.10
2023-03-26T00:29:40.044Z,5.10
2023-03-26T00:32:10.483Z,5.10
2023-03-26T00:34:41.515Z,5.09
2023-03-26T00:37:12.713Z,5.06
2023-03-26T00:39:42.947Z,5.05
2023-03-26T00:42:15.054Z,5.04
2023-03-26T00:44:44.061Z,5.05
2023-03-26T00:47:14.599Z,5.02
2023-03-26T00:49:46.965Z,4.99
2023-03-26T00:52:18.807Z,4.89
2023-03-26T00:54:48.421Z,4.87
2023-03-26T00:57:25.812Z,4.94
2023-03-26T01:00:16.405Z,4.97
2023-03-26T01:02:47.842Z,4.99
2023-03-26T01:05:46.100Z,4.95
2023-03-26T01:08:23.663Z,4.82
2023-03-26T01:10:54.197Z,4.77
2023-03-26T01:13:25.166Z,4.77
2023-03-26T01:15:54.402Z,4.77
2023-03-26T01:18:27.389Z,4.76
2023-03-26T01:21:05.343Z,4.76
2023-03-26T01:23:41.793Z,4.73
2023-03-26T01:26:23.447Z,4.73
2023-03-26T01:28:57.334Z,4.68
2023-03-26T01:31:37.256Z,4.62
2023-03-26T01:34:14.996Z,4.60
2023-03-26T01:36:55.981Z,4.58
2023-03-26T01:39:33.225Z,4.53
2023-03-26T01:42:09.724Z,4.53
2023-03-26T01:44:44.977Z,4.54
2023-03-26T01:47:14.542Z,4.54
2023-03-26T01:49:43.455Z,4.53
2023-03-26T01:52:16.293Z,4.44
2023-03-26T01:54:46.751Z,4.35
2023-03-26T01:57:26.127Z,4.29
2023-03-26T02:00:16.553Z,4.23
2023-03-26T02:03:06.202Z,4.12
2023-03-26T02:05:39.262Z,4.04
2023-03-26T02:08:21.126Z,3.98
2023-03-26T02:10:57.639Z,3.91
2023-03-26T02:13:28.505Z,3.85
2023-03-26T02:15:59.417Z,3.80
2023-03-26T02:18:36.476Z,3.75
2023-03-26T02:21:10.229Z,3.74
2023-03-26T02:23:47.214Z,3.68
2023-03-26T02:26:19.024Z,3.64
2023-03-26T02:29:04.859Z,3.57
2023-03-26T02:31:36.080Z,3.54
2023-03-26T02:34:05.288Z,3.55
2023-03-26T02:36:37.162Z,3.51
2023-03-26T02:39:06.803Z,3.46
2023-03-26T02:41:39.564Z,3.42
2023-03-26T02:44:13.090Z,3.44
2023-03-26T02:47:14.451Z,3.47
2023-03-26T02:49:55.446Z,3.46
2023-03-26T02:52:45.546Z,3.45
2023-03-26T02:55:15.022Z,3.48
2023-03-26T02:57:45.820Z,3.49
2023-03-26T03:00:31.916Z,3.53
2023-03-26T03:03:30.238Z,3.65
2023-03-26T03:06:02.422Z,3.89
2023-03-26T03:08:46.686Z,3.89
2023-03-26T03:11:22.284Z,3.84
2023-03-26T03:13:53.264Z,4.00
2023-03-26T03:16:26.746Z,3.88
2023-03-26T03:18:57.999Z,3.83
2023-03-26T03:21:35.569Z,3.77
2023-03-26T03:24:05.052Z,3.76
2023-03-26T03:26:42.516Z,3.75
2023-03-26T03:29:31.674Z,3.75
2023-03-26T03:32:14.065Z,3.73
2023-03-26T03:34:50.138Z,3.71
2023-03-26T03:37:20.726Z,3.72
2023-03-26T03:39:55.910Z,3.78
2023-03-26T03:42:28.560Z,3.82
2023-03-26T03:45:02.169Z,3.87
2023-03-26T03:47:51.304Z,3.87
2023-03-26T03:50:27.078Z,3.83
2023-03-26T03:53:16.513Z,3.84
2023-03-26T03:55:53.557Z,3.84
2023-03-26T03:58:28.461Z,3.87
2023-03-26T04:01:03.192Z,3.91
2023-03-26T04:04:06.265Z,3.92
2023-03-26T04:06:57.543Z,3.94
2023-03-26T04:09:29.763Z,3.96
2023-03-26T04:12:03.992Z,3.97
2023-03-26T04:14:44.221Z,3.98
2023-03-26T04:17:18.080Z,4.01
2023-03-26T04:19:50.427Z,4.04
2023-03-26T04:22:21.722Z,3.87
2023-03-26T04:24:56.955Z,3.90
2023-03-26T04:27:35.562Z,3.98
2023-03-26T04:30:30.660Z,4.01
2023-03-26T04:33:07.650Z,4.05
2023-03-26T04:35:44.538Z,4.11
2023-03-26T04:38:17.687Z,4.13
2023-03-26T04:40:49.900Z,4.23
2023-03-26T04:43:42.439Z,4.30
2023-03-26T04:46:27.473Z,4.37
2023-03-26T04:49:09.967Z,4.45
2023-03-26T04:51:42.429Z,4.56
2023-03-26T04:54:37.898Z,4.70
2023-03-26T04:57:17.322Z,4.73
2023-03-26T04:59:54.749Z,4.72
2023-03-26T05:02:25.064Z,4.69
2023-03-26T05:04:57.643Z,4.63
2023-03-26T05:07:33.896Z,4.58
2023-03-26T05:10:03.887Z,4.55
2023-03-26T05:12:55.875Z,4.52
2023-03-26T05:18:33.252Z,4.70
2023-03-26T05:21:08.308Z,4.78
2023-03-26T05:23:45.256Z,4.86
2023-03-26T05:26:28.294Z,4.90
2023-03-26T05:29:00.721Z,4.90
2023-03-26T05:31:44.679Z,4.89
2023-03-26T05:34:21.438Z,4.83
2023-03-26T05:37:09.449Z,4.81
2023-03-26T05:40:12.927Z,4.82
2023-03-26T05:43:05.281Z,4.86
2023-03-26T05:46:05.081Z,4.94
2023-03-26T05:48:35.647Z,5.00
2023-03-26T05:51:07.882Z,5.05
2023-03-26T05:53:38.008Z,5.09
2023-03-26T05:56:27.055Z,5.06
2023-03-26T05:59:15.846Z,5.09
2023-03-26T06:02:03.945Z,5.18
2023-03-26T06:04:58.764Z,5.20
2023-03-26T06:07:39.525Z,5.23
2023-03-26T06:10:18.132Z,5.24
2023-03-26T06:12:50.195Z,5.30
2023-03-26T06:15:23.585Z,5.29
2023-03-26T06:18:05.539Z,5.35
2023-03-26T06:20:57.894Z,5.26
2023-03-26T06:23:41.855Z,5.23
2023-03-26T06:26:33.467Z,5.18
2023-03-26T06:29:36.304Z,5.12
2023-03-26T06:32:21.065Z,5.12
2023-03-26T06:34:56.301Z,5.14
2023-03-26T06:37:28.534Z,5.16
2023-03-26T06:40:03.841Z,5.21
2023-03-26T06:43:09.112Z,5.28
2023-03-26T06:45:54.253Z,5.29
2023-03-26T06:48:42.427Z,5.30
2023-03-26T06:51:14.494Z,5.32
2023-03-26T06:54:19.150Z,5.24
2023-03-26T06:56:48.416Z,5.26
2023-03-26T06:59:47.114Z,5.37
2023-03-26T07:02:37.414Z,5.42
2023-03-26T07:05:31.290Z,5.48
2023-03-26T07:08:20.538Z,5.50
2023-03-26T07:11:31.744Z,5.54
2023-03-26T07:14:32.866Z,5.58
2023-03-26T07:17:22.354Z,5.51
2023-03-26T07:20:05.798Z,5.51
2023-03-26T07:22:36.497Z,5.51
2023-03-26T07:25:19.650Z,5.53
2023-03-26T07:28:37.509Z,5.69
2023-03-26T07:31:34.951Z,5.69
2023-03-26T07:34:47.693Z,5.74
2023-03-26T07:37:41.783Z,5.76
2023-03-26T07:40:38.807Z,5.54
2023-03-26T07:43:40.784Z,5.36
2023-03-26T07:46:37.789Z,5.36
2023-03-26T07:49:25.724Z,5.41
2023-03-26T07:52:15.582Z,5.43
2023-03-26T07:55:04.301Z,5.42
2023-03-26T07:57:48.048Z,5.37
2023-03-26T08:00:51.261Z,5.27
2023-03-26T08:03:48.098Z,5.29
2023-03-26T08:06:38.460Z,5.20
2023-03-26T08:09:33.211Z,5.18
2023-03-26T08:12:42.479Z,5.17
2023-03-26T08:15:19.653Z,5.25
2023-03-26T08:17:54.675Z,5.34
2023-03-26T08:20:36.416Z,5.38
2023-03-26T08:23:15.123Z,5.50
2023-03-26T08:25:54.853Z,5.53
2023-03-26T08:29:00.126Z,5.65
2023-03-26T08:31:39.203Z,5.74
2023-03-26T08:34:11.170Z,5.79
2023-03-26T08:36:40.658Z,5.75
2023-03-26T08:39:09.843Z,5.98
2023-03-26T08:42:32.679Z,5.83
2023-03-26T08:45:39.023Z,5.79
2023-03-26T08:48:50.146Z,5.74
2023-03-26T08:52:07.064Z,5.83
2023-03-26T08:55:36.581Z,5.74
2023-03-26T08:58:50.414Z,5.72
2023-03-26T09:01:49.698Z,5.80
2023-03-26T09:04:55.746Z,5.62
2023-03-26T09:08:09.876Z,5.68
2023-03-26T09:10:58.972Z,5.65
2023-03-26T09:14:08.817Z,5.57
2023-03-26T09:17:06.724Z,5.63
2023-03-26T09:20:05.568Z,5.65
2023-03-26T09:23:04.922Z,5.62
2023-03-26T09:26:02.945Z,5.60
2023-03-26T09:29:01.624Z,5.67
2023-03-26T09:31:51.685Z,5.68
2023-03-26T09:34:32.422Z,5.71
2023-03-26T09:37:28.462Z,5.86
2023-03-26T09:40:06.392Z,5.94
2023-03-26T09:42:45.600Z,5.87
2023-03-26T09:45:56.200Z,6.04
2023-03-26T09:48:54.235Z,6.14
2023-03-26T09:51:39.837Z,6.36
2023-03-26T09:54:53.974Z,6.37
2023-03-26T09:57:39.085Z,6.29
2023-03-26T10:00:28.632Z,6.23
2023-03-26T10:03:27.021Z,6.26
2023-03-26T10:06:34.885Z,6.31
2023-03-26T10:09:15.049Z,6.37
2023-03-26T10:12:15.658Z,6.57
2023-03-26T10:15:00.881Z,6.48
2023-03-26T10:17:42.400Z,6.36
2023-03-26T10:20:33.875Z,6.37
2023-03-26T10:23:27.871Z,6.51
2023-03-26T10:26:20.718Z,6.61
2023-03-26T10:29:21.157Z,6.87
2023-03-26T10:32:03.262Z,6.81
2023-03-26T10:34:54.735Z,6.73
2023-03-26T10:37:33.129Z,6.67
2023-03-26T10:40:22.508Z,6.82
2023-03-26T10:43:15.948Z,6.81
2023-03-26T10:46:02.068Z,6.80
2023-03-26T10:49:03.556Z,6.90
2023-03-26T10:51:46.967Z,6.75
2023-03-26T10:54:26.318Z,6.66
2023-03-26T10:56:57.905Z,6.74
2023-03-26T10:59:28.818Z,6.89
2023-03-26T11:02:19.348Z,6.98
2023-03-26T11:05:18.742Z,7.07
2023-03-26T11:07:54.026Z,7.16
2023-03-26T11:10:26.713Z,7.30
2023-03-26T11:13:04.962Z,7.36
2023-03-26T11:15:44.433Z,7.50
2023-03-26T11:18:20.519Z,7.52
2023-03-26T11:21:19.794Z,7.39
2023-03-26T11:24:05.649Z,7.39
2023-03-26T11:26:45.085Z,7.38
2023-03-26T11:29:44.669Z,7.40
2023-03-26T11:32:19.028Z,7.37
2023-03-26T11:34:58.555Z,7.25
2023-03-26T11:37:33.520Z,7.25
2023-03-26T11:40:06.290Z,7.28
2023-03-26T11:42:35.371Z,7.35
2023-03-26T11:45:08.100Z,7.27
2023-03-26T11:47:47.518Z,7.14
2023-03-26T11:50:20.935Z,7.08
2023-03-26T11:52:51.484Z,7.04
2023-03-26T11:55:21.352Z,7.02
2023-03-26T11:57:58.320Z,7.16
2023-03-26T12:00:32.178Z,7.09
2023-03-26T12:03:05.760Z,7.16
2023-03-26T12:05:49.228Z,7.05
2023-03-26T12:08:28.739Z,7.02
2023-03-26T12:11:09.047Z,7.17
2023-03-26T12:13:42.040Z,7.25
2023-03-26T12:16:14.994Z,7.16
2023-03-26T12:18:46.860Z,7.06
2023-03-26T12:21:20.930Z,7.06
2023-03-26T12:23:57.423Z,7.04
2023-03-26T12:26:39.652Z,6.97
2023-03-26T12:29:12.455Z,7.04
2023-03-26T12:31:54.200Z,7.06
2023-03-26T12:34:34.419Z,7.01
2023-03-26T12:37:05.348Z,6.99
2023-03-26T12:40:08.608Z,6.98
2023-03-26T12:44:56.035Z,6.87
2023-03-26T12:45:24.650Z,6.83
2023-03-26T12:48:01.069Z,6.84
2023-03-26T12:50:53.620Z,6.89
2023-03-26T12:53:47.617Z,6.87
2023-03-26T12:56:22.280Z,6.84
2023-03-26T12:59:07.682Z,6.82
2023-03-26T13:01:51.036Z,6.78
2023-03-26T13:05:04.398Z,6.70
2023-03-26T13:07:47.453Z,6.63
2023-03-26T13:10:37.337Z,6.62
2023-03-26T13:13:19.746Z,6.59
2023-03-26T13:15:52.878Z,6.51
2023-03-26T13:18:45.832Z,6.53
2023-03-26T13:21:24.595Z,6.51
2023-03-26T13:24:08.802Z,6.48
2023-03-26T13:27:00.110Z,6.53
2023-03-26T13:29:35.867Z,6.52
2023-03-26T13:32:14.193Z,6.50
2023-03-26T13:35:04.426Z,6.46
2023-03-26T13:37:41.587Z,6.44
2023-03-26T13:40:25.563Z,6.40
2023-03-26T13:43:13.400Z,6.32
2023-03-26T13:45:55.892Z,6.30
2023-03-26T13:48:37.615Z,6.24
2023-03-26T13:51:13.603Z,6.23
2023-03-26T13:53:46.814Z,6.21
2023-03-26T13:56:36.327Z,6.18
2023-03-26T13:59:14.220Z,6.18
2023-03-26T14:01:51.138Z,6.18
2023-03-26T14:04:32.660Z,6.22
2023-03-26T14:07:07.299Z,6.19
2023-03-26T14:09:48.380Z,6.20
2023-03-26T14:12:44.924Z,6.22
2023-03-26T14:15:20.583Z,6.24
2023-03-26T14:17:58.127Z,6.18
2023-03-26T14:20:57.530Z,6.16
2023-03-26T14:23:57.425Z,6.08
2023-03-26T14:26:49.636Z,6.08
2023-03-26T14:29:56.836Z,6.13
2023-03-26T14:32:46.341Z,6.05
2023-03-26T14:35:34.679Z,6.00
2023-03-26T14:38:37.391Z,5.92
2023-03-26T14:41:24.232Z,5.92
2023-03-26T14:44:47.625Z,5.89
2023-03-26T14:47:21.713Z,5.87
2023-03-26T14:50:10.245Z,5.87
2023-03-26T14:52:49.064Z,5.85
2023-03-26T14:55:42.491Z,5.83
2023-03-26T14:58:56.100Z,5.80
2023-03-26T15:01:36.119Z,5.80
2023-03-26T15:05:04.690Z,5.80
2023-03-26T15:08:33.706Z,5.78
2023-03-26T15:11:18.646Z,5.72
2023-03-26T15:14:15.666Z,5.74
2023-03-26T15:17:19.828Z,5.74
2023-03-26T15:20:27.596Z,5.70
2023-03-26T15:23:47.575Z,5.70
2023-03-26T15:27:17.494Z,5.69
2023-03-26T15:30:25.961Z,5.68
2023-03-26T15:33:24.900Z,5.68
2023-03-26T15:36:18.753Z,5.67
2023-03-26T15:39:34.018Z,5.62
2023-03-26T15:42:11.311Z,5.71
2023-03-26T15:44:54.454Z,5.67
2023-03-26T15:47:55.226Z,5.66
2023-03-26T15:50:53.970Z,5.63
2023-03-26T15:53:36.676Z,5.61
2023-03-26T15:56:26.102Z,5.62
2023-03-26T15:59:06.029Z,5.56
2023-03-26T16:01:48.898Z,5.54
2023-03-26T16:04:31.854Z,5.56
2023-03-26T16:07:03.871Z,5.55
2023-03-26T16:09:49.965Z,5.59
2023-03-26T16:12:35.466Z,5.55
2023-03-26T16:15:22.534Z,5.55
2023-03-26T16:18:26.454Z,5.59
2023-03-26T16:20:57.321Z,5.56
2023-03-26T16:23:30.634Z,5.56
2023-03-26T16:26:12.571Z,5.60
2023-03-26T16:29:14.612Z,5.65
2023-03-26T16:32:01.766Z,5.66
2023-03-26T16:34:42.251Z,5.62
2023-03-26T16:37:41.019Z,5.72
2023-03-26T16:40:33.480Z,5.60
2023-03-26T16:43:27.926Z,5.67
2023-03-26T16:46:04.571Z,5.59
2023-03-26T16:48:42.923Z,5.58
2023-03-26T16:51:20.506Z,5.54
2023-03-26T16:53:57.799Z,5.56
2023-03-26T16:56:34.530Z,5.50
2023-03-26T16:59:10.274Z,5.50
2023-03-26T17:01:47.287Z,5.49
2023-03-26T17:04:23.407Z,5.47
2023-03-26T17:07:14.169Z,5.43
2023-03-26T17:09:55.831Z,5.46
2023-03-26T17:12:37.109Z,5.44
2023-03-26T17:15:25.634Z,5.41
2023-03-26T17:18:05.027Z,5.49
2023-03-26T17:20:39.721Z,5.47
2023-03-26T17:23:28.950Z,5.45
2023-03-26T17:26:06.099Z,5.40
2023-03-26T17:28:53.452Z,5.39
2023-03-26T17:31:34.455Z,5.38
2023-03-26T17:34:35.667Z,5.38
2023-03-26T17:37:07.588Z,5.41
2023-03-26T17:40:06.740Z,5.38
2023-03-26T17:42:39.841Z,5.34
2023-03-26T17:45:17.794Z,5.35
2023-03-26T17:47:51.739Z,5.34
2023-03-26T17:50:24.065Z,5.32
2023-03-26T17:52:58.977Z,5.35
2023-03-26T17:55:39.639Z,5.36
2023-03-26T17:58:24.961Z,5.37
2023-03-26T18:01:00.291Z,5.36
2023-03-26T18:03:34.285Z,5.32
2023-03-26T18:06:09.933Z,5.35
2023-03-26T18:08:47.158Z,5.37
2023-03-26T18:11:54.711Z,5.43
2023-03-26T18:14:50.354Z,5.38
2023-03-26T18:17:19.555Z,5.39
2023-03-26T18:19:51.252Z,5.35
2023-03-26T18:22:25.265Z,5.35
2023-03-26T18:24:59.882Z,5.41
2023-03-26T18:27:37.313Z,5.37
2023-03-26T18:30:16.831Z,5.37
2023-03-26T18:33:00.200Z,5.34
2023-03-26T18:35:42.936Z,5.39
2023-03-26T18:38:18.837Z,5.37
2023-03-26T18:41:06.098Z,5.37
2023-03-26T18:43:44.539Z,5.42
2023-03-26T18:46:17.123Z,5.43
2023-03-26T18:48:48.720Z,5.43
2023-03-26T18:51:23.177Z,5.38
2023-03-26T18:53:57.088Z,5.34
2023-03-26T18:56:31.867Z,5.32
2023-03-26T18:59:02.765Z,5.31
2023-03-26T19:01:36.759Z,5.37
2023-03-26T19:04:08.112Z,5.43
2023-03-26T19:06:42.584Z,5.40
2023-03-26T19:09:28.139Z,5.37
2023-03-26T19:12:07.804Z,5.33
2023-03-26T19:14:52.443Z,5.36
2023-03-26T19:17:24.753Z,5.34
2023-03-26T19:19:53.805Z,5.32
2023-03-26T19:22:27.313Z,5.29
2023-03-26T19:25:01.083Z,5.29
2023-03-26T19:27:33.740Z,5.33
2023-03-26T19:30:02.929Z,5.33
2023-03-26T19:32:35.241Z,5.31
2023-03-26T19:35:06.109Z,5.36
2023-03-26T19:37:35.087Z,5.36
2023-03-26T19:40:14.424Z,5.36
2023-03-26T19:42:45.187Z,5.34
2023-03-26T19:45:19.244Z,5.30
2023-03-26T19:48:00.381Z,5.30
2023-03-26T19:50:35.577Z,5.28
2023-03-26T19:53:18.802Z,5.31
2023-03-26T19:55:55.821Z,5.34
2023-03-26T19:58:26.093Z,5.36
2023-03-26T20:00:56.525Z,5.36
2023-03-26T20:03:30.759Z,5.45
2023-03-26T20:05:59.807Z,5.44
2023-03-26T20:08:29.193Z,5.42
2023-03-26T20:10:59.211Z,5.40
2023-03-26T20:13:30.252Z,5.38
2023-03-26T20:16:06.436Z,5.36
2023-03-26T20:18:37.855Z,5.32
2023-03-26T20:21:12.378Z,5.35
2023-03-26T20:23:41.679Z,5.40
2023-03-26T20:26:14.025Z,5.42
2023-03-26T20:28:48.590Z,5.40
2023-03-26T20:31:24.988Z,5.34
2023-03-26T20:33:56.573Z,5.29
2023-03-26T20:36:33.215Z,5.29
2023-03-26T20:39:06.645Z,5.27
2023-03-26T20:41:38.219Z,5.26
2023-03-26T20:44:13.922Z,5.29
2023-03-26T20:46:44.070Z,5.30
2023-03-26T20:49:15.213Z,5.30
2023-03-26T20:51:45.534Z,5.30
2023-03-26T20:54:17.737Z,5.28
2023-03-26T20:56:48.101Z,5.29
2023-03-26T20:59:22.363Z,5.28
2023-03-26T21:01:52.388Z,5.26
2023-03-26T21:04:23.337Z,5.29
2023-03-26T21:06:57.596Z,5.26
2023-03-26T21:09:35.677Z,5.27
2023-03-26T21:12:06.703Z,5.26
2023-03-26T21:14:41.262Z,5.27
2023-03-26T21:17:16.217Z,5.33
2023-03-26T21:19:47.782Z,5.32
2023-03-26T21:22:29.162Z,5.30
2023-03-26T21:25:06.700Z,5.27
2023-03-26T21:27:42.031Z,5.27
2023-03-26T21:30:13.928Z,5.28
2023-03-26T21:32:44.225Z,5.28
2023-03-26T21:35:16.482Z,5.27
2023-03-26T21:37:48.811Z,5.26
2023-03-26T21:40:19.181Z,5.29
2023-03-26T21:42:50.126Z,5.29
2023-03-26T21:45:20.333Z,5.24
2023-03-26T21:47:50.418Z,5.22
2023-03-26T21:50:23.673Z,5.20
2023-03-26T21:52:53.566Z,5.14
2023-03-26T21:55:24.702Z,4.97
2023-03-26T21:58:15.263Z,4.95
2023-03-26T22:00:55.282Z,4.88
2023-03-26T22:03:29.427Z,4.83
2023-03-26T22:06:05.011Z,4.76
2023-03-26T22:08:39.016Z,4.71
2023-03-26T22:11:08.940Z,4.64
2023-03-26T22:13:39.048Z,4.62
2023-03-26T22:16:10.861Z,4.59
2023-03-26T22:18:39.899Z,4.57
2023-03-26T22:21:10.391Z,4.58
2023-03-26T22:23:39.702Z,4.49
2023-03-26T22:26:08.926Z,4.49
2023-03-26T22:28:38.472Z,4.44
2023-03-26T22:31:08.872Z,4.42
2023-03-26T22:33:40.199Z,4.46
2023-03-26T22:36:23.129Z,4.38
2023-03-26T22:38:54.867Z,4.40
2023-03-26T22:41:24.565Z,4.40
2023-03-26T22:43:55.958Z,4.30
2023-03-26T22:46:26.347Z,4.26
2023-03-26T22:48:57.154Z,4.21
2023-03-26T22:51:27.643Z,4.21
2023-03-26T22:53:56.778Z,4.17
2023-03-26T22:56:25.913Z,4.13
2023-03-26T22:58:54.853Z,4.10
2023-03-26T23:01:25.550Z,4.01
2023-03-26T23:03:55.673Z,3.90
2023-03-26T23:06:25.311Z,3.89
2023-03-26T23:08:57.127Z,3.88
2023-03-26T23:11:26.809Z,3.86
2023-03-26T23:13:56.101Z,3.77
2023-03-26T23:16:25.294Z,3.80
2023-03-26T23:18:54.439Z,3.78
2023-03-26T23:21:23.967Z,3.74
2023-03-26T23:23:53.058Z,3.72
2023-03-26T23:26:24.363Z,3.68
2023-03-26T23:28:53.396Z,3.74
2023-03-26T23:31:22.378Z,3.65
2023-03-26T23:33:51.427Z,3.57
2023-03-26T23:36:23.847Z,3.52
2023-03-26T23:38:53.735Z,3.52
2023-03-26T23:41:25.542Z,3.48
2023-03-26T23:43:55.781Z,3.50
2023-03-26T23:46:30.473Z,3.53
2023-03-26T23:49:02.678Z,3.53
2023-03-26T23:51:32.524Z,3.52
2023-03-26T23:54:02.476Z,3.46
2023-03-26T23:56:33.158Z,3.49
2023-03-26T23:59:02.233Z,3.47
